Map

Track Data

SID SEASON NUMBER BASIN SUBBASIN NAME ISO_TIME NATURE LAT LON WMO_WIND WMO_PRES WMO_AGENCY TRACK_TYPE DIST2LAND LANDFALL IFLAG USA_AGENCY USA_ATCF_ID USA_LAT USA_LON USA_RECORD USA_STATUS USA_WIND USA_PRES USA_SSHS USA_R34_NE USA_R34_SE USA_R34_SW USA_R34_NW USA_R50_NE USA_R50_SE USA_R50_SW USA_R50_NW USA_R64_NE USA_R64_SE USA_R64_SW USA_R64_NW USA_POCI USA_ROCI USA_RMW USA_EYE TOKYO_LAT TOKYO_LON TOKYO_GRADE TOKYO_WIND TOKYO_PRES TOKYO_R50_DIR TOKYO_R50_LONG TOKYO_R50_SHORT TOKYO_R30_DIR TOKYO_R30_LONG TOKYO_R30_SHORT TOKYO_LAND CMA_LAT CMA_LON CMA_CAT CMA_WIND CMA_PRES HKO_LAT HKO_LON HKO_CAT HKO_WIND HKO_PRES NEWDELHI_LAT NEWDELHI_LON NEWDELHI_GRADE NEWDELHI_WIND NEWDELHI_PRES NEWDELHI_CI NEWDELHI_DP NEWDELHI_POCI REUNION_LAT REUNION_LON REUNION_TYPE REUNION_WIND REUNION_PRES REUNION_TNUM REUNION_CI REUNION_RMW REUNION_R34_NE REUNION_R34_SE REUNION_R34_SW REUNION_R34_NW REUNION_R50_NE REUNION_R50_SE REUNION_R50_SW REUNION_R50_NW REUNION_R64_NE REUNION_R64_SE REUNION_R64_SW REUNION_R64_NW BOM_LAT BOM_LON BOM_TYPE BOM_WIND BOM_PRES BOM_TNUM BOM_CI BOM_RMW BOM_R34_NE BOM_R34_SE BOM_R34_SW BOM_R34_NW BOM_R50_NE BOM_R50_SE BOM_R50_SW BOM_R50_NW BOM_R64_NE BOM_R64_SE BOM_R64_SW BOM_R64_NW BOM_ROCI BOM_POCI BOM_EYE BOM_POS_METHOD BOM_PRES_METHOD NADI_LAT NADI_LON NADI_CAT NADI_WIND NADI_PRES WELLINGTON_LAT WELLINGTON_LON WELLINGTON_WIND WELLINGTON_PRES DS824_LAT DS824_LON DS824_STAGE DS824_WIND DS824_PRES TD9636_LAT TD9636_LON TD9636_STAGE TD9636_WIND TD9636_PRES TD9635_LAT TD9635_LON TD9635_WIND TD9635_PRES TD9635_ROCI NEUMANN_LAT NEUMANN_LON NEUMANN_CLASS NEUMANN_WIND NEUMANN_PRES MLC_LAT MLC_LON MLC_CLASS MLC_WIND MLC_PRES USA_GUST BOM_GUST BOM_GUST_PER REUNION_GUST REUNION_GUST_PER USA_SEAHGT USA_SEARAD_NE USA_SEARAD_SE USA_SEARAD_SW USA_SEARAD_NW STORM_SPEED STORM_DIR
1993285N12192 1993 80 EP CP HATTIE 1993-10-12 00:00:00 NR 12.0000 192.400 main 1392 1392 O_____________ jtwc_wp WP291993 12.0000 -167.600 15 -1 8 277
1993285N12192 1993 80 EP CP HATTIE 1993-10-12 03:00:00 NR 12.0501 192.000 main 1408 1408 P_____________ WP291993 12.0501 -168.000 15 -1 8 277
1993285N12192 1993 80 EP CP HATTIE 1993-10-12 06:00:00 NR 12.1000 191.600 main 1435 1435 O_____________ jtwc_wp WP291993 12.1000 -168.400 15 -1 8 277
1993285N12192 1993 80 EP CP HATTIE 1993-10-12 09:00:00 NR 12.1499 191.200 main 1462 1454 P_____________ WP291993 12.1499 -168.800 15 -1 8 277
1993285N12192 1993 80 EP CP HATTIE 1993-10-12 12:00:00 NR 12.2000 190.800 main 1482 1482 O_____________ jtwc_wp WP291993 12.2000 -169.200 15 -1 8 277
1993285N12192 1993 80 EP CP HATTIE 1993-10-12 15:00:00 NR 12.2499 190.400 main 1511 1503 P_____________ WP291993 12.2499 -169.600 15 -1 8 277
1993285N12192 1993 80 EP CP HATTIE 1993-10-12 18:00:00 NR 12.3000 190.000 main 1532 1532 O_____________ jtwc_wp WP291993 12.3000 -170.000 15 -1 8 278
1993285N12192 1993 80 EP CP HATTIE 1993-10-12 21:00:00 NR 12.3574 189.600 main 1555 1555 P_____________ WP291993 12.3574 -170.400 17 -1 8 277
1993285N12192 1993 80 EP CP HATTIE 1993-10-13 00:00:00 NR 12.4000 189.200 main 1585 1585 O_____________ jtwc_wp WP291993 12.4000 -170.800 20 -1 8 274
1993285N12192 1993 80 EP CP HATTIE 1993-10-13 03:00:00 NR 12.4074 188.800 main 1617 1617 P_____________ WP291993 12.4074 -171.200 20 -1 8 270
1993285N12192 1993 80 EP CP HATTIE 1993-10-13 06:00:00 NR 12.4000 188.400 main 1649 1649 O_____________ jtwc_wp WP291993 12.4000 -171.600 20 -1 8 270
1993285N12192 1993 80 EP CP HATTIE 1993-10-13 09:00:00 NR 12.4074 188.000 main 1681 1681 P_____________ WP291993 12.4074 -172.000 20 -1 8 270
1993285N12192 1993 80 EP CP HATTIE 1993-10-13 12:00:00 NR 12.4000 187.600 main 1714 1714 O_____________ jtwc_wp WP291993 12.4000 -172.400 20 -1 8 266
1993285N12192 1993 80 EP CP HATTIE 1993-10-13 15:00:00 NR 12.3574 187.200 main 1747 1747 P_____________ WP291993 12.3574 -172.800 20 -1 8 263
1993285N12192 1993 80 EP CP HATTIE 1993-10-13 18:00:00 NR 12.3000 186.800 main 1788 1788 O_____________ jtwc_wp WP291993 12.3000 -173.200 20 -1 8 262
1993285N12192 1993 80 EP CP HATTIE 1993-10-13 21:00:00 NR 12.2499 186.408 main 1829 1829 P_____________ WP291993 12.2499 -173.592 20 -1 8 263
1993285N12192 1993 80 EP CP HATTIE 1993-10-14 00:00:00 NR 12.2000 186.000 main 1863 1863 O_____________ jtwc_wp WP291993 12.2000 -174.000 20 -1 8 263
1993285N12192 1993 80 EP CP HATTIE 1993-10-14 03:00:00 NR 12.1500 185.558 main 1904 1904 P_____________ WP291993 12.1500 -174.442 20 -1 9 264
1993285N12192 1993 80 EP CP HATTIE 1993-10-14 06:00:00 NR 12.1000 185.100 main 1948 1948 O_____________ jtwc_wp WP291993 12.1000 -174.900 20 -1 9 264
1993285N12192 1993 80 EP CP HATTIE 1993-10-14 09:00:00 NR 12.0499 184.658 main 1989 1989 P_____________ WP291993 12.0499 -175.342 20 -1 9 264
1993285N12192 1993 80 EP CP HATTIE 1993-10-14 12:00:00 NR 12.0000 184.200 main 2033 2033 O_____________ jtwc_wp WP291993 12.0000 -175.800 20 -1 9 264
1993285N12192 1993 80 EP CP HATTIE 1993-10-14 15:00:00 NR 11.9500 183.708 main 2084 2084 P_____________ WP291993 11.9500 -176.292 20 -1 10 264
1993285N12192 1993 80 EP CP HATTIE 1993-10-14 18:00:00 NR 11.9000 183.200 main 2129 2129 O_____________ jtwc_wp WP291993 11.9000 -176.800 20 -1 10 264
1993285N12192 1993 80 EP CP HATTIE 1993-10-14 21:00:00 NR 11.8499 182.700 main 2181 2181 P_____________ WP291993 11.8499 -177.300 20 -1 10 264
1993285N12192 1993 80 EP CP HATTIE 1993-10-15 00:00:00 NR 11.8000 182.200 main 2226 2226 O_____________ jtwc_wp WP291993 11.8000 -177.800 20 -1 10 264
1993285N12192 1993 80 EP CP HATTIE 1993-10-15 03:00:00 NR 11.7499 181.700 main 2278 2278 P_____________ WP291993 11.7499 -178.300 20 -1 10 264
1993285N12192 1993 80 EP CP HATTIE 1993-10-15 06:00:00 NR 11.7000 181.200 main 2324 2324 O_____________ jtwc_wp WP291993 11.7000 -178.800 20 -1 10 264
1993285N12192 1993 80 EP CP HATTIE 1993-10-15 09:00:00 NR 11.6499 180.700 main 2376 2376 P_____________ WP291993 11.6499 -179.300 17 -1 10 264
1993285N12192 1993 80 EP CP HATTIE 1993-10-15 12:00:00 NR 11.6000 180.200 main 2422 2422 O_____________ jtwc_wp WP291993 11.6000 -179.800 15 -1 10 264
1993285N12192 1993 80 WP MM HATTIE 1993-10-15 15:00:00 NR 11.5499 179.700 main 2475 2475 P_____________ WP291993 11.5499 179.700 15 -1 10 264
1993285N12192 1993 80 WP MM HATTIE 1993-10-15 18:00:00 NR 11.5000 179.200 main 2521 2521 O_____________ jtwc_wp WP291993 11.5000 179.200 15 -1 10 264
1993285N12192 1993 80 WP MM HATTIE 1993-10-15 21:00:00 NR 11.4499 178.700 main 2574 2574 P_____________ WP291993 11.4499 178.700 15 -1 10 264
1993285N12192 1993 80 WP MM HATTIE 1993-10-16 00:00:00 NR 11.4000 178.200 main 2621 2621 O_____________ jtwc_wp WP291993 11.4000 178.200 15 -1 10 264
1993285N12192 1993 80 WP MM HATTIE 1993-10-16 03:00:00 NR 11.3499 177.700 main 2674 2674 P_____________ WP291993 11.3499 177.700 15 -1 10 264
1993285N12192 1993 80 WP MM HATTIE 1993-10-16 06:00:00 NR 11.3000 177.200 main 2722 2722 O_____________ jtwc_wp WP291993 11.3000 177.200 15 -1 10 264
1993285N12192 1993 80 WP MM HATTIE 1993-10-16 09:00:00 NR 11.2499 176.700 main 2775 2775 P_____________ WP291993 11.2499 176.700 15 -1 10 264
1993285N12192 1993 80 WP MM HATTIE 1993-10-16 12:00:00 NR 11.2000 176.200 main 2780 2737 O_____________ jtwc_wp WP291993 11.2000 176.200 15 -1 10 263
1993285N12192 1993 80 WP MM HATTIE 1993-10-16 15:00:00 NR 11.1349 175.700 main 2737 2704 P_____________ WP291993 11.1349 175.700 15 -1 10 264
1993285N12192 1993 80 WP MM HATTIE 1993-10-16 18:00:00 NR 11.1000 175.200 main 2704 2672 O_____________ jtwc_wp WP291993 11.1000 175.200 15 -1 10 270
1993285N12192 1993 80 WP MM HATTIE 1993-10-16 21:00:00 NR 11.1349 174.700 main 2672 2650 P_____________ WP291993 11.1349 174.700 17 -1 10 276
1993285N12192 1993 80 WP MM HATTIE 1993-10-17 00:00:00 NR 11.2000 174.200 main 2650 2619 O_____________ jtwc_wp WP291993 11.2000 174.200 20 -1 10 277
1993285N12192 1993 80 WP MM HATTIE 1993-10-17 03:00:00 NR 11.2499 173.700 main 2619 2599 P_____________ WP291993 11.2499 173.700 20 -1 10 276
1993285N12192 1993 80 WP MM HATTIE 1993-10-17 06:00:00 NR 11.3000 173.200 main 2599 2570 O_____________ jtwc_wp WP291993 11.3000 173.200 20 -1 10 276
1993285N12192 1993 80 WP MM HATTIE 1993-10-17 09:00:00 NR 11.3499 172.700 main 2570 2552 P_____________ WP291993 11.3499 172.700 20 -1 10 276
1993285N12192 1993 80 WP MM HATTIE 1993-10-17 12:00:00 NR 11.4000 172.200 main 2552 2525 O_____________ jtwc_wp WP291993 11.4000 172.200 20 -1 10 275
1993285N12192 1993 80 WP MM HATTIE 1993-10-17 15:00:00 NR 11.4424 171.707 main 2525 2509 P_____________ WP291993 11.4424 171.707 20 -1 10 276
1993285N12192 1993 80 WP MM HATTIE 1993-10-17 18:00:00 NR 11.5000 171.200 main 2509 2494 O_____________ jtwc_wp WP291993 11.5000 171.200 20 -1 10 278
1993285N12192 1993 80 WP MM HATTIE 1993-10-17 21:00:00 NR 11.5924 170.665 main 2494 2476 P_____________ WP291993 11.5924 170.665 22 -1 11 281
1993285N12192 1993 80 WP MM HATTIE 1993-10-18 00:00:00 NR 11.7000 170.100 main 2476 2459 O_____________ jtwc_wp WP291993 11.7000 170.100 25 -1 11 280
1993285N12192 1993 80 WP MM HATTIE 1993-10-18 03:00:00 NR 11.7849 169.515 main 2459 2442 P_____________ WP291993 11.7849 169.515 25 -1 12 280
1993285N12192 1993 80 WP MM HATTIE 1993-10-18 06:00:00 NR 11.9000 168.900 main 2444 2435 O_____________ jtwc_wp WP291993 11.9000 168.900 25 -1 13 284
1993285N12192 1993 80 WP MM HATTIE 1993-10-18 09:00:00 NR 12.0848 168.265 main 2442 2434 P_____________ WP291993 12.0848 168.265 25 -1 13 287
1993285N12192 1993 80 WP MM HATTIE 1993-10-18 12:00:00 NR 12.3000 167.600 main 2436 2410 O_____________ jtwc_wp WP291993 12.3000 167.600 25 -1 14 288
1993285N12192 1993 80 WP MM HATTIE 1993-10-18 15:00:00 NR 12.5074 166.907 main 2410 2377 P_____________ WP291993 12.5074 166.907 25 -1 14 286
1993285N12192 1993 80 WP MM HATTIE 1993-10-18 18:00:00 NR 12.7000 166.200 main 2377 2345 O_____________ jtwc_wp WP291993 12.7000 166.200 25 -1 14 285
1993285N12192 1993 80 WP MM HATTIE 1993-10-18 21:00:00 NR 12.8648 165.500 main 2348 2310 P_____________ WP291993 12.8648 165.500 25 -1 14 282
1993285N12192 1993 80 WP MM HATTIE 1993-10-19 00:00:00 NR 13.0000 164.800 main 2310 2272 O_____________ jtwc_wp WP291993 13.0000 164.800 25 -1 14 280
1993285N12192 1993 80 WP MM HATTIE 1993-10-19 03:00:00 NR 13.1073 164.100 main 2272 2236 P_____________ WP291993 13.1073 164.100 25 -1 14 278
1993285N12192 1993 80 WP MM HATTIE 1993-10-19 06:00:00 NR 13.2000 163.400 main 2236 2209 O_____________ jtwc_wp WP291993 13.2000 163.400 25 -1 14 278
1993285N12192 1993 80 WP MM HATTIE 1993-10-19 09:00:00 NR 13.2924 162.692 main 2203 2107 P_____________ WP291993 13.2924 162.692 25 -1 22 271
1993285N12192 1993 80 WP MM HATTIE 1993-10-19 12:00:00 TS 13.2286 161.143 1000 tokyo main 2102 2064 OOOO__________ jtwc_wp WP291993 13.4000 162.000 25 -1 13.0000 160.000 2 1000 0 0 0 13.0000 160.000 1 23 1000 13.0000 160.000 TD 25 1000 23 268
1993285N12192 1993 80 WP MM HATTIE 1993-10-19 15:00:00 TS 13.2189 160.382 main 2064 2038 PPPP__________ WP291993 13.5498 161.335 27 -1 12.9700 159.767 2 1000 0 0 13.0425 159.773 1 23 1000 12.9826 159.700 TD 25 1000 13 270
1993285N12192 1993 80 WP MM HATTIE 1993-10-19 18:00:00 TS 13.2385 159.846 1000 tokyo main 2033 2023 OOOO__________ jtwc_wp WP291993 13.7000 160.700 30 -1 13.0000 159.500 2 1000 0 0 0 13.1000 159.500 1 23 1000 13.0000 159.400 TD 25 1000 10 274
1993285N12192 1993 80 WP MM HATTIE 1993-10-19 21:00:00 TS 13.2956 159.375 main 2023 2013 PPPP__________ WP291993 13.7924 160.070 30 -1 13.1275 159.173 2 999 0 0 13.1850 159.158 1 26 999 13.0775 159.100 TD 27 997 9 282
1993285N12192 1993 80 WP MM HATTIE 1993-10-20 00:00:00 TS 13.4250 158.975 998 tokyo main 2013 2008 OOOO__________ jtwc_wp WP291993 13.9000 159.500 30 -1 13.3000 158.800 2 998 0 0 0 13.3000 158.800 1 29 998 13.2000 158.800 TD 30 995 8 290
1993285N12192 1993 80 WP MM HATTIE 1993-10-20 03:00:00 TS 13.5724 158.609 main 2014 2009 PPPP__________ WP291993 14.0848 159.020 30 -1 13.4425 158.400 2 997 0 0 13.4348 158.515 1 29 997 13.3275 158.500 TD 30 995 8 295
1993285N12192 1993 80 WP MM HATTIE 1993-10-20 06:00:00 TS 13.7500 158.250 996 tokyo main 2020 2012 OOOO__________ jtwc_wp WP291993 14.3000 158.600 30 -1 13.6000 158.000 2 996 0 0 0 13.6000 158.200 1 29 996 13.5000 158.200 TD 30 995 8 297
1993285N12192 1993 80 WP MM HATTIE 1993-10-20 09:00:00 TS 13.9438 157.860 main 2013 2013 PPPP__________ WP291993 14.4924 158.185 30 -1 13.7700 157.627 2 996 0 0 13.7852 157.743 1 29 996 13.7275 157.885 TD 30 995 8 300
1993285N12192 1993 80 WP MM HATTIE 1993-10-20 12:00:00 TS 14.1750 157.500 996 tokyo main 2028 2024 OOOO__________ jtwc_wp WP291993 14.7000 157.800 30 -1 14.0000 157.300 2 996 0 0 0 14.0000 157.300 1 29 996 14.0000 157.600 TD 30 995 8 309
1993285N12192 1993 80 WP MM HATTIE 1993-10-20 15:00:00 TS 14.4512 157.215 main 2048 2044 PPPP__________ WP291993 14.9424 157.435 32 -1 14.3424 157.028 2 996 0 0 14.2274 157.012 1 29 996 14.2924 157.385 TD 30 995 8 319
1993285N12192 1993 80 WP MM HATTIE 1993-10-20 18:00:00 TS 14.7500 156.975 996 tokyo main 2072 2069 OOOO__________ jtwc_wp WP291993 15.2000 157.100 35 0 14.7000 156.800 2 996 0 0 0 14.5000 156.800 1 29 996 14.6000 157.200 TD 30 995 8 322
1993285N12192 1993 80 WP MM HATTIE 1993-10-20 21:00:00 TS 15.0412 156.735 main 2083 2083 PPPP__________ WP291993 15.4500 156.785 35 0 14.9650 156.585 2 996 0 0 14.8500 156.585 1 29 996 14.9000 156.985 TD 30 995 7 323
1993285N12192 1993 80 WP MM HATTIE 1993-10-21 00:00:00 TS 15.3250 156.525 996 tokyo main 2108 2108 OOOO__________ jtwc_wp WP291993 15.7000 156.500 35 0 15.2000 156.400 2 996 0 0 0 15.2000 156.400 1 29 996 15.2000 156.800 TD 30 995 7 326
1993285N12192 1993 80 WP MM HATTIE 1993-10-21 03:00:00 TS 15.5931 156.349 main 2134 2134 PPPP__________ WP291993 15.9425 156.235 35 0 15.4575 156.235 2 996 0 0 15.4725 156.235 1 29 996 15.5000 156.692 TD 30 995 6 329
1993285N12192 1993 80 WP MM HATTIE 1993-10-21 06:00:00 TS 15.8500 156.200 996 tokyo main 2163 2160 OOOO__________ jtwc_wp WP291993 16.2000 156.000 35 0 15.7000 156.100 2 996 0 0 0 15.7000 156.100 1 29 996 15.8000 156.600 TD 30 995 6 331
1993285N12192 1993 80 WP MM HATTIE 1993-10-21 09:00:00 TS 16.0962 156.057 main 2182 2179 PPPP__________ WP291993 16.4850 155.785 35 0 15.9000 155.992 2 996 0 0 15.9000 155.992 1 29 996 16.1000 156.458 TD 30 995 6 332
1993285N12192 1993 80 WP MM HATTIE 1993-10-21 12:00:00 TS 16.3500 155.925 996 tokyo main 2209 2209 OOOO__________ jtwc_wp WP291993 16.8000 155.600 35 0 16.1000 155.900 2 996 0 0 0 16.1000 155.900 1 29 996 16.4000 156.300 TD 30 995 6 334
1993285N12192 1993 80 WP MM HATTIE 1993-10-21 15:00:00 TS 16.6094 155.798 main 2228 2228 PPPP__________ WP291993 17.1275 155.442 37 0 16.3125 155.800 2 996 0 0 16.3125 155.800 1 29 996 16.6850 156.150 TD 30 995 6 337
1993285N12192 1993 80 WP MM HATTIE 1993-10-21 18:00:00 TS 16.9250 155.675 996 tokyo main 2257 2257 OOOO__________ jtwc_wp WP291993 17.5000 155.300 40 0 16.6000 155.700 2 996 0 0 0 16.6000 155.700 1 29 996 17.0000 156.000 TD 30 995 7 341
1993285N12192 1993 80 WP MM HATTIE 1993-10-21 21:00:00 TS 17.3100 155.544 main 2296 2296 PPPP__________ WP291993 17.9275 155.150 40 0 16.9750 155.585 2 996 0 0 16.9750 155.585 1 29 996 17.3625 155.857 TD 30 995 9 345
1993285N12192 1993 80 WP MM HATTIE 1993-10-22 00:00:00 TS 17.8000 155.425 996 tokyo main 2348 2348 OOOO__________ jtwc_wp WP291993 18.4000 155.000 40 0 17.5000 155.500 2 996 0 0 0 17.5000 155.500 1 29 996 17.8000 155.700 TD 30 995 11 350
1993285N12192 1993 80 WP MM HATTIE 1993-10-22 03:00:00 TS 18.3906 155.348 main 2381 2326 PPPP__________ WP291993 18.8925 154.857 37 0 18.1825 155.507 2 995 0 0 18.1825 155.507 1 33 995 18.3050 155.522 TD 32 992 13 353
1993285N12192 1993 80 WP MM HATTIE 1993-10-22 06:00:00 TS 19.0750 155.250 35 994 tokyo main 2317 2242 OOOO__________ jtwc_wp WP291993 19.4000 154.700 35 0 19.0000 155.500 3 35 994 0 9 120 120 0 19.0000 155.500 2 38 994 18.9000 155.300 TS 35 990 15 350
1993285N12192 1993 80 WP MM HATTIE 1993-10-22 09:00:00 TS 19.8249 155.093 main 2242 2167 PPPP__________ WP291993 19.9075 154.515 35 0 19.9073 155.417 3 37 992 0 9 160 160 19.9073 155.417 2 38 992 19.5775 155.022 TS 37 990 16 346
1993285N12192 1993 80 WP MM HATTIE 1993-10-22 12:00:00 TS 20.5750 154.850 40 990 tokyo main 2158 2080 OOOO__________ jtwc_wp WP291993 20.4000 154.300 35 0 20.8000 155.200 3 40 990 0 9 200 200 0 20.8000 155.200 2 38 990 20.3000 154.700 TS 40 990 15 339
1993285N12192 1993 80 WP MM HATTIE 1993-10-22 15:00:00 TS 21.2388 154.503 main 2080 2002 PPPP__________ WP291993 20.8650 154.050 35 0 21.5376 154.803 3 42 987 0 9 225 225 21.5376 154.803 2 43 987 21.0150 154.357 TS 42 987 15 331
1993285N12192 1993 80 WP MM HATTIE 1993-10-22 18:00:00 TS 21.8500 154.100 45 985 tokyo main 1993 1923 OOOO__________ jtwc_wp WP291993 21.3000 153.800 35 0 22.2000 154.300 3 45 985 0 9 250 250 0 22.2000 154.300 3 48 985 21.7000 154.000 TS 45 985 14 327
1993285N12192 1993 80 WP MM HATTIE 1993-10-22 21:00:00 TS 22.4495 153.659 main 1923 1846 PPPP__________ WP291993 21.6325 153.518 37 0 22.9103 153.756 3 45 985 0 9 300 250 22.9177 153.763 3 48 985 22.3376 153.598 TS 45 985 14 328
1993285N12192 1993 80 WP MM HATTIE 1993-10-23 00:00:00 TS 23.0000 153.325 45 985 tokyo main 1846 1796 OOOO__________ jtwc_wp WP291993 22.1000 153.400 40 0 23.5000 153.300 3 45 985 0 1 350 250 0 23.5000 153.300 3 48 985 22.9000 153.300 TS 45 985 11 339
1993285N12192 1993 80 WP MM HATTIE 1993-10-23 03:00:00 TS 23.5123 153.218 main 1796 1769 PPPP__________ WP291993 22.9777 153.631 42 0 23.8597 153.052 3 45 985 0 1 375 275 23.8022 152.994 3 48 985 23.4097 153.195 TS 45 985 10 358
1993285N12192 1993 80 WP MM HATTIE 1993-10-23 06:00:00 TS 23.9500 153.300 45 985 tokyo main 1761 1743 OOOO__________ jtwc_wp WP291993 23.9000 154.000 45 0 24.1000 153.000 3 45 985 0 1 400 300 0 24.0000 152.900 3 48 985 23.8000 153.300 TS 45 985 8 16
1993285N12192 1993 80 WP MM HATTIE 1993-10-23 09:00:00 TS 24.3029 153.463 main 1750 1739 PPPP__________ WP291993 24.5097 154.236 47 0 24.3571 153.038 3 45 985 0 1 400 300 24.2997 152.988 3 48 985 24.0451 153.590 TS 45 985 8 34
1993285N12192 1993 80 WP MM HATTIE 1993-10-23 12:00:00 TS 24.6000 153.775 45 985 tokyo main 1746 1745 OOOO__________ jtwc_wp WP291993 25.0000 154.500 50 0 24.6000 153.300 3 45 985 0 1 400 300 0 24.6000 153.300 3 48 985 24.2000 154.000 TS 45 985 9 50
1993285N12192 1993 80 WP MM HATTIE 1993-10-23 15:00:00 TS 24.8800 154.212 main 1751 1751 PPPP__________ WP291993 25.5377 154.892 50 0 24.8353 153.825 3 45 985 0 1 400 300 24.8425 153.775 3 48 985 24.3046 154.356 TS 45 985 11 57
1993285N12192 1993 80 WP MM HATTIE 1993-10-23 18:00:00 TS 25.1750 154.750 45 985 tokyo main 1769 1768 OOOO__________ jtwc_wp WP291993 26.0000 155.300 50 0 25.1000 154.500 3 45 985 0 1 400 300 0 25.1000 154.400 3 48 985 24.5000 154.800 TS 45 985 12 58
1993285N12192 1993 80 WP MM HATTIE 1993-10-23 21:00:00 TS 25.4973 155.301 main 1782 1781 PPPP__________ WP291993 26.2995 155.579 50 0 25.3821 155.129 3 45 982 0 1 387 337 25.3824 155.071 3 48 982 24.9254 155.427 TS 45 985 13 54
1993285N12192 1993 80 WP MM HATTIE 1993-10-24 00:00:00 TS 25.9250 155.900 45 980 tokyo main 1796 1789 OOOO__________ jtwc_wp WP291993 26.6000 155.900 50 0 25.8000 155.800 3 45 980 0 9 375 375 0 25.8000 155.800 3 48 980 25.5000 156.100 TS 45 985 15 48
1993285N12192 1993 80 WP MM HATTIE 1993-10-24 03:00:00 TS 26.4911 156.537 main 1799 1799 PPPP__________ WP291993 27.0399 156.391 50 0 26.4177 156.557 3 47 980 0 9 375 375 26.4176 156.565 3 48 980 26.0893 156.637 TS 50 982 17 42
1993285N12192 1993 80 WP MM HATTIE 1993-10-24 06:00:00 TS 27.2000 157.200 50 980 tokyo main 1807 1802 OOOO__________ jtwc_wp WP291993 27.6000 157.000 50 0 27.2000 157.300 4 50 980 0 9 375 375 0 27.2000 157.300 3 48 980 26.8000 157.200 STS 55 980 19 38
1993285N12192 1993 80 WP MM HATTIE 1993-10-24 09:00:00 TS 27.9588 157.806 main 1806 1806 PPPP__________ WP291993 28.2238 157.613 47 0 28.0161 157.867 4 50 980 0 9 375 375 28.0161 157.867 3 48 980 27.5794 157.879 STS 55 980 21 35
1993285N12192 1993 80 WP MM HATTIE 1993-10-24 12:00:00 TS 28.9000 158.525 50 980 tokyo main 1813 1813 OOOO__________ jtwc_wp WP291993 29.0000 158.400 45 0 29.0000 158.500 4 50 980 0 9 375 375 0 29.0000 158.500 3 48 980 28.6000 158.700 STS 55 980 26 35
1993285N12192 1993 80 WP MM HATTIE 1993-10-24 15:00:00 TS 30.0849 159.491 main 1838 1838 PPPP__________ WP291993 29.9244 159.440 45 0 30.2125 159.417 4 47 982 0 9 350 350 30.2125 159.417 3 48 982 29.9900 159.689 STS 52 982 31 36
1993285N12192 1993 80 WP MM HATTIE 1993-10-24 18:00:00 TS 31.3750 160.625 45 985 tokyo main 1838 1778 OOOO__________ jtwc_wp WP291993 31.0000 160.700 45 0 31.5000 160.500 3 45 985 0 9 325 325 0 31.5000 160.500 3 48 985 31.5000 160.800 STS 50 985 32 37
1993285N12192 1993 80 WP MM HATTIE 1993-10-24 21:00:00 TS 32.6132 161.749 main 1773 1733 PPPP__________ WP291993 32.1988 162.076 45 0 32.6836 161.528 3 45 985 0 9 312 312 32.6836 161.528 3 48 985 32.8868 161.863 STS 47 987 32 41
1993285N12192 1993 80 WP MM HATTIE 1993-10-25 00:00:00 TS 33.7750 163.075 45 985 tokyo main 1735 1726 OOOO__________ jtwc_wp WP291993 33.4000 163.600 45 0 33.8000 162.800 3 45 985 0 9 300 300 0 33.8000 162.800 3 48 985 34.1000 163.100 TS 45 990 33 48
1993285N12192 1993 80 WP MM HATTIE 1993-10-25 03:00:00 TS 34.8335 164.745 main 1735 1732 PPPP__________ WP291993 34.4591 165.230 42 0 34.8844 164.557 3 42 987 0 9 280 280 34.8844 164.557 3 43 987 35.1062 164.637 TS 45 990 35 56
1993285N12192 1993 80 WP MM HATTIE 1993-10-25 06:00:00 TS 35.6933 166.587 40 990 tokyo main 1777 1777 OOOO__________ jtwc_wp WP291993 35.4000 166.900 40 0 35.8000 166.500 3 40 990 0 9 260 260 0 35.8000 166.500 2 38 990 35.8000 166.400 TS 45 990 33 63
1993285N12192 1993 80 WP MM HATTIE 1993-10-25 09:00:00 TS 36.3620 168.374 main 1830 1830 PPPP__________ WP291993 36.2441 168.555 40 0 36.4731 168.307 3 993 0 9 36.4731 168.307 2 38 993 36.1534 168.276 TS 42 992 31 66
1993285N12192 1993 80 WP MM HATTIE 1993-10-25 12:00:00 ET 36.9462 170.046 996 tokyo main 1855 1851 OOOO__________ jtwc_wp WP291993 37.0000 170.100 40 0 37.0000 170.000 6 996 0 0 0 37.0000 170.000 9 38 996 36.3000 170.200 TS 40 995 28 64
1993285N12192 1993 80 WP MM HATTIE 1993-10-25 15:00:00 ET 37.5732 171.506 main 1866 1866 PPP___________ WP291993 37.6964 171.436 40 0 37.5115 171.541 6 998 0 0 37.5115 171.541 9 33 998 TS 26 62
1993285N12192 1993 80 WP MM HATTIE 1993-10-25 18:00:00 ET 38.1333 172.900 1000 tokyo main 1897 1894 OOO___________ jtwc_wp WP291993 38.4000 172.700 40 0 38.0000 173.000 6 1000 0 0 0 38.0000 173.000 9 29 1000 24 63
1993285N12192 1993 80 WP MM HATTIE 1993-10-25 21:00:00 ET 38.6942 174.262 main 1913 1905 PPP___________ WP291993 39.1643 173.850 40 0 38.4592 174.468 6 1001 0 0 38.4592 174.468 9 29 1001 26 63
1993285N12192 1993 80 WP MM HATTIE 1993-10-26 00:00:00 ET 39.3000 175.850 1002 tokyo main 1900 1754 OOO___________ jtwc_wp WP291993 40.0000 175.500 40 0 39.0000 176.000 6 1002 0 0 0 39.0000 176.000 9 29 1002 31 64
1993285N12192 1993 80 WP MM HATTIE 1993-10-26 03:00:00 ET 40.0207 177.845 main 1749 1598 PPP___________ WP291993 40.8750 178.200 40 0 39.7506 177.746 6 1003 0 0 39.7066 177.689 9 26 1003 34 65
1993285N12192 1993 80 WP MM HATTIE 1993-10-26 06:00:00 ET 40.7400 179.920 1004 tokyo main 1594 1522 OOO___________ jtwc_wp WP291993 41.7000 -178.400 40 0 40.5000 179.500 6 1004 0 0 0 40.5000 179.500 9 23 1004 26 67
1993285N12192 1993 80 EP CP HATTIE 1993-10-26 09:00:00 ET 41.0639 181.063 main 1509 1422 _P____________ WP291993 -1 41.0639 -178.937 6 1005 0 0 9 21 69
1993285N12192 1993 80 EP CP HATTIE 1993-10-26 12:00:00 ET 41.5000 182.500 main 1419 _O____________ -1 41.5000 182.500 6 1006 0 0 0 23 68

About IBTrACS Database

This database is a web-friendly format of International Best Track Archive for Climate Stewardship (IBTrACS), a global best track data archive curated by NOAA dating back to 1842.

Updated: 2021-11-26